SBOSBO BAH / OBBI
Speedbird OnlineSpeedbird Online BAH / OBBI

Bahrain International Airport
16:24 23.1°C

Location Bahrain, Bahrain
Latitude: 26.27079963684082
Longitude: 50.63359832763672
Web Airport Website | Wikipedia
Altitude 2 Meter / 6 Feet
Distance 5,055 KM / 3,141 Miles
from London.
Time Zone UTC +3 hours (Asia/Bahrain)
Codes IATA: BAH
ICAO: OBBI
Currency £1 equals BHD 0.47
Runways
RunwayLength (m)Surface
12L3956Asphalt
12R2530Asphalt
30L2530Asphalt
30R3956Asphalt
Radio
TypeDescriptionFrequency
APPAPP127.85
ATISATIS127.2
GNDGND121.675
OPSATOC32.175
TWRTWR118.5
Live ATC
METAR OBBI 311300Z 14010KT CAVOK 23/08 Q1012 NOSIG
TAF TAF OBBI 311100Z 3112/0118 15015G25KT 9000 NSC PROB30 TEMPO 3115/0106 4000 DU BECMG 0105/0107 17012KT BECMG 0112/0114 34010KT
Weather As Of 31 Jan 2023 16:24
Description Clear sky
Wind 19 km/h from South-East (140°)
Cloud Cover 0%
Precipitation Rain: none, Snow: none
Sunrise 06:22
Sunset 17:18
Lounges The Pearl Lounge , New Terminal
Rotations During the last 90 days there were
63 flights from LHR
67 flights to LHR



Support Speedbird Online

© 2017-2023 Speedbird Online